Time;durP1;ratioP1;P1;durP2;ratioP2;P2;SDS_P1;SDS_P2;PMS_P1;PMS_P2;Temp;Humidity;BMP_temperature;BMP_pressure;BME280_temperature;BME280_humidity;BME280_pressure;Samples;Min_cycle;Max_cycle;Signal;HPM_P1;HPM_P2
2021/03/02 00:01:41;;;;;;;327.13;306.40;;;0.40;99.90;;;;;;5033076;28;20795;-80
2021/03/02 00:04:08;;;;;;;330.67;309.53;;;0.30;99.90;;;;;;5033101;28;20453;-80
2021/03/02 00:06:38;;;;;;;330.47;312.40;;;0.30;99.90;;;;;;5032897;28;20452;-80
2021/03/02 00:09:07;;;;;;;343.87;323.17;;;0.40;99.90;;;;;;5031642;28;20526;-79
2021/03/02 00:11:36;;;;;;;338.77;321.40;;;0.50;99.90;;;;;;5032777;28;20541;-80
2021/03/02 00:14:03;;;;;;;336.77;320.27;;;0.50;99.90;;;;;;5032969;28;20531;-80
2021/03/02 00:16:32;;;;;;;336.50;320.50;;;0.50;99.90;;;;;;5032890;28;20884;-80
2021/03/02 00:21:40;;;;;;;335.65;319.15;;;0.40;99.90;;;;;;5704080;23;20339;-79
2021/03/02 00:24:11;;;;;;;335.50;319.17;;;0.40;99.90;;;;;;5031830;28;20202;-79
2021/03/02 00:26:44;;;;;;;339.40;323.10;;;0.30;99.90;;;;;;5032644;28;20459;-79
2021/03/02 00:29:11;;;;;;;346.30;328.87;;;0.30;99.90;;;;;;5032727;28;20869;-79
2021/03/02 00:31:40;;;;;;;333.63;316.90;;;0.30;99.90;;;;;;5032859;28;20547;-79
2021/03/02 00:34:07;;;;;;;333.50;317.90;;;0.20;99.90;;;;;;5032920;28;20951;-79
2021/03/02 00:39:03;;;;;;;337.83;322.23;;;0.20;99.90;;;;;;4970872;28;20489;-80
2021/03/02 00:41:31;;;;;;;335.60;320.40;;;0.20;99.90;;;;;;4973914;28;20463;-80
2021/03/02 00:43:57;;;;;;;347.00;331.33;;;0.20;99.90;;;;;;4975249;28;20490;-80
2021/03/02 00:46:24;;;;;;;347.30;332.13;;;0.20;99.90;;;;;;4973811;28;20202;-80
2021/03/02 00:48:51;;;;;;;340.83;325.60;;;0.30;99.90;;;;;;4973874;28;20195;-80
2021/03/02 00:51:18;;;;;;;351.73;334.83;;;0.10;99.90;;;;;;5721156;23;20558;-79
2021/03/02 00:53:44;;;;;;;348.40;331.77;;;0.20;99.90;;;;;;5012402;28;20483;-80
2021/03/02 00:56:10;;;;;;;348.50;332.60;;;0.30;99.90;;;;;;5012123;28;20461;-79
2021/03/02 00:58:37;;;;;;;348.93;332.97;;;0.20;99.90;;;;;;5012776;28;20484;-79
2021/03/02 01:01:04;;;;;;;348.73;332.53;;;0.20;99.90;;;;;;5012935;28;20481;-80
2021/03/02 01:03:30;;;;;;;359.13;342.13;;;0.30;99.90;;;;;;5012676;28;20515;-79
2021/03/02 01:05:57;;;;;;;366.53;349.83;;;0.40;99.90;;;;;;5012573;28;20544;-80
2021/03/02 01:08:23;;;;;;;356.92;340.02;;;0.30;99.90;;;;;;5012569;28;20457;-80
2021/03/02 01:10:50;;;;;;;365.33;349.40;;;0.30;99.90;;;;;;5011325;28;20198;-80
2021/03/02 01:13:16;;;;;;;360.65;344.48;;;0.30;99.90;;;;;;5012660;28;20457;-79
2021/03/02 01:15:43;;;;;;;384.57;366.70;;;0.40;99.90;;;;;;5012635;28;20205;-80
2021/03/02 01:18:10;;;;;;;371.50;354.13;;;0.40;99.90;;;;;;5012627;28;20492;-80
2021/03/02 01:20:36;;;;;;;365.23;347.88;;;0.30;99.90;;;;;;5012614;28;20456;-80
2021/03/02 01:23:03;;;;;;;356.67;339.70;;;0.30;99.90;;;;;;5012545;28;20627;-80
2021/03/02 01:25:29;;;;;;;350.63;334.07;;;0.20;99.90;;;;;;5014132;28;20501;-80
2021/03/02 01:27:55;;;;;;;345.48;330.17;;;0.20;99.90;;;;;;5016154;28;20449;-80
2021/03/02 01:30:23;;;;;;;337.50;322.77;;;0.10;99.90;;;;;;5015947;28;20286;-80
2021/03/02 01:32:51;;;;;;;347.00;331.57;;;0.00;99.90;;;;;;5015974;28;20454;-80
2021/03/02 01:35:17;;;;;;;338.97;322.37;;;0.00;99.90;;;;;;5015868;28;20452;-80
2021/03/02 01:37:44;;;;;;;340.37;323.47;;;0.00;99.90;;;;;;5015732;28;20484;-80
2021/03/02 01:40:13;;;;;;;339.80;324.77;;;0.00;99.90;;;;;;5014629;28;20459;-80
2021/03/02 01:42:41;;;;;;;349.70;334.00;;;0.10;99.90;;;;;;5015904;28;20477;-80
2021/03/02 01:45:11;;;;;;;358.83;343.30;;;0.30;99.90;;;;;;5015740;28;20449;-80
2021/03/02 01:47:38;;;;;;;361.27;345.73;;;0.20;99.90;;;;;;5015720;28;20464;-80
2021/03/02 01:50:07;;;;;;;351.83;336.23;;;0.20;99.90;;;;;;5015488;28;20953;-80
2021/03/02 01:52:34;;;;;;;357.50;342.23;;;0.20;99.90;;;;;;5015353;28;20567;-80
2021/03/02 01:55:00;;;;;;;353.03;337.40;;;0.30;99.90;;;;;;5014427;28;20464;-80
2021/03/02 01:57:27;;;;;;;360.02;344.30;;;0.20;99.90;;;;;;5015412;28;20565;-80
2021/03/02 01:59:53;;;;;;;362.23;347.13;;;0.20;99.90;;;;;;5015443;28;20197;-80
2021/03/02 02:02:28;;;;;;;373.63;357.27;;;0.20;99.90;;;;;;5015413;28;20465;-80
2021/03/02 02:04:56;;;;;;;354.60;339.48;;;0.10;99.90;;;;;;5015561;28;20471;-80
2021/03/02 02:07:32;;;;;;;354.83;339.67;;;0.10;99.90;;;;;;5015253;28;20655;-80
2021/03/02 02:10:06;;;;;;;351.03;335.80;;;0.10;99.90;;;;;;5124025;23;20567;-79
2021/03/02 02:12:38;;;;;;;350.77;334.73;;;0.00;99.90;;;;;;5014858;28;20453;-79
2021/03/02 02:15:08;;;;;;;359.60;343.10;;;0.10;99.90;;;;;;5017096;28;20668;-79
2021/03/02 02:17:39;;;;;;;352.97;337.50;;;0.00;99.90;;;;;;5015037;28;20489;-79
2021/03/02 02:20:10;;;;;;;349.67;333.67;;;-0.10;99.90;;;;;;5015161;28;20569;-79
2021/03/02 02:23:10;;;;;;;351.63;336.43;;;0.00;99.90;;;;;;5015130;28;20920;-79
2021/03/02 02:25:46;;;;;;;360.17;344.47;;;0.00;99.90;;;;;;5010171;28;20544;-79
2021/03/02 02:28:16;;;;;;;370.53;354.27;;;0.00;99.90;;;;;;5015040;28;20544;-79
2021/03/02 02:30:46;;;;;;;364.37;347.87;;;0.00;99.90;;;;;;5015005;28;20461;-79
2021/03/02 02:33:14;;;;;;;357.17;342.23;;;0.00;99.90;;;;;;5014906;28;20461;-79
2021/03/02 02:35:44;;;;;;;351.10;336.00;;;0.00;99.90;;;;;;5014733;28;20455;-79
2021/03/02 02:38:14;;;;;;;349.87;334.40;;;-0.10;99.90;;;;;;5014475;28;20575;-79
2021/03/02 02:40:42;;;;;;;349.55;334.55;;;-0.10;99.90;;;;;;5013517;28;20540;-79
2021/03/02 02:43:09;;;;;;;352.27;337.05;;;-0.20;99.90;;;;;;5014717;28;20200;-79
2021/03/02 02:45:37;;;;;;;341.03;325.70;;;-0.20;99.90;;;;;;5014570;28;20285;-79
2021/03/02 02:48:05;;;;;;;359.70;344.00;;;-0.20;99.90;;;;;;5014527;28;20544;-79
2021/03/02 02:50:32;;;;;;;361.17;344.60;;;-0.40;99.90;;;;;;5014448;28;20463;-79
2021/03/02 02:52:59;;;;;;;355.93;340.03;;;-0.40;99.90;;;;;;5014523;28;20519;-79
2021/03/02 02:55:34;;;;;;;347.33;332.40;;;-0.40;99.90;;;;;;5013164;28;21065;-79
2021/03/02 02:58:03;;;;;;;344.20;329.70;;;-0.50;99.90;;;;;;5014362;28;20534;-79
2021/03/02 03:00:30;;;;;;;332.25;317.42;;;-0.60;99.90;;;;;;5014345;28;20509;-79
2021/03/02 03:03:00;;;;;;;330.37;315.87;;;-0.60;99.90;;;;;;5014292;28;20244;-79
2021/03/02 03:05:28;;;;;;;334.40;319.77;;;-0.60;99.90;;;;;;5014278;28;21047;-79
2021/03/02 03:08:02;;;;;;;330.03;315.90;;;-0.60;99.90;;;;;;5014180;28;20204;-79
2021/03/02 03:10:31;;;;;;;325.07;311.07;;;-0.70;99.90;;;;;;5012922;28;20975;-79
2021/03/02 03:13:01;;;;;;;331.37;316.33;;;-0.80;99.90;;;;;;5014085;28;20450;-79
2021/03/02 03:15:29;;;;;;;326.83;311.92;;;-0.80;99.90;;;;;;5014086;28;20552;-79
2021/03/02 03:17:59;;;;;;;335.30;321.10;;;-0.70;99.90;;;;;;5014058;28;20309;-79
2021/03/02 03:20:26;;;;;;;345.10;329.35;;;-0.80;99.90;;;;;;5013965;28;20544;-79
2021/03/02 03:22:55;;;;;;;332.60;318.25;;;-0.90;99.90;;;;;;5014060;28;20198;-79
2021/03/02 03:25:21;;;;;;;336.60;322.50;;;-0.90;99.90;;;;;;5012645;28;20208;-79
2021/03/02 03:27:50;;;;;;;338.13;323.03;;;-0.90;99.90;;;;;;5013886;28;20463;-79
2021/03/02 03:30:18;;;;;;;347.65;331.95;;;-0.80;99.90;;;;;;5013825;28;20913;-79
2021/03/02 03:32:47;;;;;;;342.83;328.13;;;-0.60;99.90;;;;;;5013684;28;20680;-79
2021/03/02 03:35:15;;;;;;;337.67;321.67;;;-0.70;99.90;;;;;;5015887;28;20462;-79
2021/03/02 03:37:41;;;;;;;339.98;324.83;;;-0.70;99.90;;;;;;5013493;28;20982;-79
2021/03/02 03:40:09;;;;;;;325.02;310.75;;;-0.80;99.90;;;;;;5012358;28;20202;-79
2021/03/02 03:42:35;;;;;;;319.80;305.60;;;-0.70;99.90;;;;;;5013567;28;20662;-79
2021/03/02 03:45:04;;;;;;;305.73;291.88;;;-0.80;99.90;;;;;;5013579;28;21108;-79
2021/03/02 03:47:30;;;;;;;315.13;300.98;;;-0.80;99.90;;;;;;5013110;28;20250;-79
2021/03/02 03:49:57;;;;;;;311.33;297.48;;;-0.90;99.90;;;;;;5013465;28;20263;-79
2021/03/02 03:52:24;;;;;;;301.90;288.67;;;-0.90;99.90;;;;;;5013465;28;20212;-79
2021/03/02 03:54:52;;;;;;;295.80;282.50;;;-0.90;99.90;;;;;;5012246;28;20285;-79
2021/03/02 03:57:20;;;;;;;311.58;296.77;;;-1.00;99.90;;;;;;5013273;28;20329;-79
2021/03/02 03:59:46;;;;;;;300.27;286.77;;;-1.10;99.90;;;;;;5013303;28;20293;-79
2021/03/02 04:02:14;;;;;;;285.60;272.27;;;-1.10;99.90;;;;;;5013390;28;20281;-79
2021/03/02 04:04:41;;;;;;;291.50;277.55;;;-1.10;99.90;;;;;;5013346;28;20289;-79
2021/03/02 04:07:07;;;;;;;286.70;273.70;;;-0.90;99.90;;;;;;5013260;28;20194;-79
2021/03/02 04:09:36;;;;;;;302.92;289.08;;;-1.00;99.90;;;;;;5011986;28;20347;-79
2021/03/02 04:12:03;;;;;;;315.35;301.33;;;-0.90;99.90;;;;;;5013214;28;20622;-79
2021/03/02 04:14:32;;;;;;;320.40;305.25;;;-0.80;99.90;;;;;;5013142;28;20268;-79
2021/03/02 04:16:58;;;;;;;295.87;282.70;;;-0.80;99.90;;;;;;5013218;28;20199;-80
2021/03/02 04:19:24;;;;;;;312.17;297.80;;;-0.80;99.90;;;;;;5013128;28;20559;-79
2021/03/02 04:21:51;;;;;;;322.48;307.60;;;-0.80;99.90;;;;;;5013160;28;20201;-79
2021/03/02 04:24:17;;;;;;;325.77;311.60;;;-0.70;99.90;;;;;;5011825;28;20194;-79
2021/03/02 04:26:44;;;;;;;331.05;316.75;;;-0.70;99.90;;;;;;5013109;28;20256;-79
2021/03/02 04:29:11;;;;;;;330.83;316.40;;;-0.70;99.90;;;;;;5013097;28;20204;-79
2021/03/02 04:31:37;;;;;;;333.15;318.35;;;-0.70;99.90;;;;;;5013072;28;20289;-79
2021/03/02 04:34:03;;;;;;;338.05;323.27;;;-0.70;99.90;;;;;;5013150;28;20552;-79
2021/03/02 04:36:30;;;;;;;336.25;320.38;;;-0.60;99.90;;;;;;5013037;28;20190;-79
2021/03/02 04:38:56;;;;;;;332.52;316.70;;;-0.50;99.90;;;;;;5011689;28;20226;-79
2021/03/02 04:41:23;;;;;;;331.95;315.52;;;-0.60;99.90;;;;;;5012963;28;20844;-79
2021/03/02 04:43:51;;;;;;;310.40;294.35;;;-0.40;99.90;;;;;;5012966;28;20286;-79
2021/03/02 04:46:19;;;;;;;306.65;292.23;;;-0.50;99.90;;;;;;5012978;28;20200;-79
2021/03/02 04:48:45;;;;;;;294.05;278.95;;;-0.70;99.90;;;;;;5012952;28;20245;-79
2021/03/02 04:51:11;;;;;;;300.92;284.48;;;-0.70;99.90;;;;;;5012701;28;20237;-79
2021/03/02 04:53:38;;;;;;;303.75;287.00;;;-0.60;99.90;;;;;;5012843;28;20191;-79
2021/03/02 04:56:05;;;;;;;299.02;283.17;;;-0.50;99.90;;;;;;5011622;28;20290;-79
2021/03/02 04:58:31;;;;;;;290.60;275.42;;;-0.50;99.90;;;;;;5012774;28;20598;-79
2021/03/02 05:00:58;;;;;;;294.42;280.05;;;-0.70;99.90;;;;;;5016481;28;20270;-79
2021/03/02 05:03:24;;;;;;;286.58;272.33;;;-0.80;99.90;;;;;;5016450;28;20289;-79
2021/03/02 05:05:51;;;;;;;286.55;272.58;;;-0.80;99.90;;;;;;5016608;28;20194;-79
2021/03/02 05:08:17;;;;;;;291.58;275.98;;;-0.90;99.90;;;;;;5016405;28;20285;-79
2021/03/02 05:10:43;;;;;;;282.88;266.63;;;-1.00;99.90;;;;;;5015124;28;20257;-79
2021/03/02 05:13:10;;;;;;;279.60;265.60;;;-0.90;99.90;;;;;;5016410;28;20194;-79
2021/03/02 05:15:37;;;;;;;277.50;263.48;;;-0.90;99.90;;;;;;5016333;28;20337;-79
2021/03/02 05:18:04;;;;;;;268.98;255.57;;;-0.90;99.90;;;;;;5016291;28;20229;-79
2021/03/02 05:20:32;;;;;;;277.13;262.67;;;-1.00;99.90;;;;;;5016180;28;20194;-79
2021/03/02 05:22:58;;;;;;;286.88;270.60;;;-1.00;99.90;;;;;;5016155;28;20292;-79
2021/03/02 05:25:25;;;;;;;278.92;263.73;;;-1.20;99.90;;;;;;5015166;28;20616;-79
2021/03/02 05:27:51;;;;;;;279.05;264.33;;;-1.20;99.90;;;;;;5016059;28;20249;-79
2021/03/02 05:30:18;;;;;;;262.13;248.73;;;-1.00;99.90;;;;;;5015986;28;20206;-79
2021/03/02 05:32:45;;;;;;;264.52;251.15;;;-1.20;99.90;;;;;;5015879;28;20202;-79
2021/03/02 05:35:12;;;;;;;269.52;255.73;;;-1.10;99.90;;;;;;5015987;28;20195;-79
2021/03/02 05:37:39;;;;;;;288.98;274.48;;;-1.10;99.90;;;;;;5015839;28;20225;-79
2021/03/02 05:40:06;;;;;;;290.95;275.77;;;-1.00;99.90;;;;;;5014612;28;20194;-79
2021/03/02 05:42:34;;;;;;;288.15;274.70;;;-0.90;99.90;;;;;;5015844;28;20226;-79
2021/03/02 05:45:01;;;;;;;295.42;280.75;;;-0.80;99.90;;;;;;5015925;28;20202;-78
2021/03/02 05:47:28;;;;;;;288.55;274.35;;;-0.70;99.90;;;;;;5015754;28;20281;-79
2021/03/02 05:49:55;;;;;;;286.00;271.45;;;-0.60;99.90;;;;;;5015815;28;20226;-79
2021/03/02 05:52:23;;;;;;;305.67;290.40;;;-0.70;99.90;;;;;;5015622;28;20253;-79
2021/03/02 05:54:51;;;;;;;303.80;290.27;;;-0.50;99.90;;;;;;5014261;28;20305;-79
2021/03/02 05:57:18;;;;;;;294.83;281.83;;;-0.50;99.90;;;;;;5015508;28;20477;-79
2021/03/02 05:59:45;;;;;;;295.60;283.25;;;-0.40;99.90;;;;;;5015277;28;20321;-79
2021/03/02 06:02:11;;;;;;;317.65;304.20;;;-0.20;99.90;;;;;;5015574;28;20225;-80
2021/03/02 06:04:37;;;;;;;317.63;303.53;;;-0.10;99.90;;;;;;5015378;28;20641;-80
2021/03/02 06:07:04;;;;;;;331.83;317.35;;;0.00;99.90;;;;;;5015459;28;20460;-79
2021/03/02 06:09:31;;;;;;;323.90;310.00;;;0.00;99.90;;;;;;5013841;28;20254;-79
2021/03/02 06:12:02;;;;;;;328.58;314.67;;;0.10;99.90;;;;;;5015188;28;20492;-79
2021/03/02 06:14:32;;;;;;;334.58;319.63;;;0.10;99.90;;;;;;5015297;28;20202;-80
2021/03/02 06:16:58;;;;;;;329.07;314.80;;;0.20;99.90;;;;;;5015264;28;20208;-80
2021/03/02 06:19:42;;;;;;;322.95;309.23;;;0.30;99.90;;;;;;5014997;28;20489;-79
2021/03/02 06:22:29;;;;;;;342.37;328.37;;;0.20;99.90;;;;;;5015031;28;20654;-80
2021/03/02 06:24:56;;;;;;;336.20;322.90;;;0.30;99.90;;;;;;5013820;28;20457;-80
2021/03/02 06:27:23;;;;;;;346.80;331.60;;;0.40;99.90;;;;;;5014655;28;20460;-80
2021/03/02 06:30:07;;;;;;;350.13;336.27;;;0.60;99.90;;;;;;5014803;28;21110;-79
2021/03/02 06:32:38;;;;;;;355.67;341.37;;;0.80;99.90;;;;;;5015093;28;20293;-79
2021/03/02 06:35:06;;;;;;;332.63;319.03;;;1.00;99.90;;;;;;5014695;28;20536;-80
2021/03/02 06:37:39;;;;;;;338.60;324.50;;;1.20;99.90;;;;;;5014153;28;20489;-80
2021/03/02 06:40:09;;;;;;;341.47;326.50;;;1.20;99.90;;;;;;5013471;28;20453;-79
2021/03/02 06:42:37;;;;;;;349.30;334.57;;;1.20;99.90;;;;;;5014737;28;20454;-79
2021/03/02 06:45:06;;;;;;;350.20;334.50;;;1.20;99.90;;;;;;5014580;28;20872;-79
2021/03/02 06:47:34;;;;;;;359.60;344.43;;;1.20;99.90;;;;;;5014629;28;20456;-79
2021/03/02 06:50:03;;;;;;;355.50;341.30;;;1.30;99.90;;;;;;5014526;28;20452;-79
2021/03/02 06:52:35;;;;;;;360.13;345.03;;;1.40;99.90;;;;;;5014352;28;20549;-79
2021/03/02 06:55:03;;;;;;;365.77;349.97;;;1.50;99.90;;;;;;5013022;28;21059;-79
2021/03/02 06:57:31;;;;;;;368.37;352.77;;;1.40;99.90;;;;;;5014335;28;21043;-79
2021/03/02 07:00:00;;;;;;;364.80;349.60;;;1.40;99.90;;;;;;5014188;28;20997;-79
2021/03/02 07:02:37;;;;;;;380.95;364.90;;;1.50;99.90;;;;;;5014331;28;20457;-80
2021/03/02 07:05:09;;;;;;;388.70;372.80;;;1.60;99.90;;;;;;5014092;28;20191;-79
2021/03/02 07:07:35;;;;;;;384.48;368.27;;;1.50;99.90;;;;;;5014352;28;20805;-78
2021/03/02 07:10:03;;;;;;;396.30;379.80;;;1.60;99.90;;;;;;5012960;28;20316;-79
2021/03/02 07:12:32;;;;;;;411.57;394.43;;;1.70;99.90;;;;;;5014125;28;20937;-78
2021/03/02 07:15:02;;;;;;;399.67;383.87;;;1.80;99.90;;;;;;5014144;28;20536;-78
2021/03/02 07:17:28;;;;;;;400.67;384.30;;;1.90;99.90;;;;;;5014130;28;20828;-78
2021/03/02 07:19:57;;;;;;;413.77;396.60;;;2.00;99.90;;;;;;5013886;28;20855;-78
2021/03/02 07:22:25;;;;;;;421.77;404.23;;;2.00;99.90;;;;;;5013215;28;20457;-78
2021/03/02 07:24:53;;;;;;;414.53;397.17;;;2.20;99.90;;;;;;5012612;28;20496;-78
2021/03/02 07:27:21;;;;;;;417.37;400.60;;;2.20;99.90;;;;;;5013866;28;20457;-78
2021/03/02 07:29:49;;;;;;;425.40;407.83;;;2.40;99.90;;;;;;5013866;28;20515;-78
2021/03/02 07:32:17;;;;;;;424.97;407.27;;;2.40;99.90;;;;;;5013669;28;20457;-78
2021/03/02 07:34:45;;;;;;;411.07;394.13;;;2.50;99.90;;;;;;5013849;28;20459;-78
2021/03/02 07:37:12;;;;;;;410.27;393.47;;;2.60;99.90;;;;;;5016994;28;20471;-78
2021/03/02 07:39:38;;;;;;;416.53;399.77;;;2.80;99.90;;;;;;5012344;28;21040;-79
2021/03/02 07:42:22;;;;;;;420.63;403.23;;;3.00;99.90;;;;;;5013897;28;20990;-79
2021/03/02 07:45:06;;;;;;;417.63;400.47;;;3.20;99.90;;;;;;5013551;28;20515;-79
2021/03/02 07:47:44;;;;;;;404.27;387.13;;;3.40;99.90;;;;;;5013608;28;20459;-79
2021/03/02 07:50:21;;;;;;;404.23;387.33;;;3.50;99.90;;;;;;5013615;28;20522;-79
2021/03/02 07:52:47;;;;;;;403.67;386.43;;;3.40;99.90;;;;;;5013361;28;20455;-79
2021/03/02 07:55:22;;;;;;;405.70;388.77;;;3.50;99.90;;;;;;5012017;28;20618;-79
2021/03/02 07:58:10;;;;;;;377.47;361.03;;;3.60;99.90;;;;;;5013353;28;20471;-79
2021/03/02 08:00:37;;;;;;;333.53;319.87;;;3.80;99.90;;;;;;5013176;28;20511;-79
2021/03/02 08:03:25;;;;;;;303.23;290.33;;;4.10;99.90;;;;;;5013468;28;20457;-79
2021/03/02 08:05:52;;;;;;;272.23;260.47;;;4.10;99.90;;;;;;5010028;28;20459;-79
2021/03/02 08:08:37;;;;;;;242.03;231.27;;;4.30;99.90;;;;;;5013326;28;20454;-79
2021/03/02 08:11:29;;;;;;;200.07;190.63;;;4.30;99.90;;;;;;5011757;28;20473;-79
2021/03/02 08:13:56;;;;;;;165.27;157.63;;;4.50;99.90;;;;;;5013039;28;20458;-79
2021/03/02 08:16:54;;;;;;;153.53;146.40;;;4.70;99.90;;;;;;5013157;28;20979;-79
2021/03/02 08:19:46;;;;;;;120.17;114.17;;;4.80;99.90;;;;;;5013132;28;20525;-79
2021/03/02 08:22:58;;;;;;;85.80;81.03;;;5.00;99.90;;;;;;5013258;28;20548;-79
2021/03/02 08:25:35;;;;;;;45.67;42.43;;;5.10;99.90;;;;;;5011698;28;20510;-79
2021/03/02 08:28:04;;;;;;;24.87;20.43;;;5.20;99.90;;;;;;5013104;28;20453;-79
2021/03/02 08:30:34;;;;;;;28.00;20.60;;;5.40;99.90;;;;;;5012951;28;20461;-79
2021/03/02 08:33:05;;;;;;;23.60;17.87;;;5.50;99.90;;;;;;5013651;28;20539;-79
2021/03/02 08:35:33;;;;;;;24.23;17.33;;;5.60;99.90;;;;;;5017073;28;20491;-79
2021/03/02 08:38:01;;;;;;;24.27;14.87;;;5.70;99.90;;;;;;5017036;28;20530;-79
2021/03/02 08:40:44;;;;;;;22.90;15.53;;;5.90;99.90;;;;;;5015658;28;20540;-79
2021/03/02 08:43:13;;;;;;;23.30;13.93;;;5.90;99.90;;;;;;5016956;28;20492;-79
2021/03/02 08:45:41;;;;;;;27.80;12.60;;;6.20;99.90;;;;;;5016965;28;20465;-79
2021/03/02 08:48:24;;;;;;;24.53;14.77;;;6.20;99.90;;;;;;5016816;28;20460;-79
2021/03/02 08:50:54;;;;;;;28.80;12.07;;;6.40;99.90;;;;;;5016824;28;20887;-79
2021/03/02 08:53:35;;;;;;;22.27;12.47;;;6.50;99.90;;;;;;5016686;28;20500;-79
2021/03/02 08:56:03;;;;;;;18.60;10.67;;;6.60;99.90;;;;;;5015465;28;20503;-79
2021/03/02 08:58:31;;;;;;;19.50;10.00;;;6.80;99.90;;;;;;5016607;28;20838;-79
2021/03/02 09:00:59;;;;;;;22.83;11.00;;;6.90;99.90;;;;;;5016642;28;20533;-79
2021/03/02 09:03:26;;;;;;;20.03;11.10;;;7.00;99.90;;;;;;5016584;28;20453;-79
2021/03/02 09:06:15;;;;;;;21.43;9.77;;;7.10;99.90;;;;;;5016593;28;20453;-79
2021/03/02 09:08:56;;;;;;;20.80;10.37;;;7.30;99.90;;;;;;5016437;28;20456;-79
2021/03/02 09:11:25;;;;;;;20.20;9.93;;;7.40;99.90;;;;;;5016513;28;20551;-79
2021/03/02 09:13:53;;;;;;;21.70;11.33;;;7.50;99.90;;;;;;5016406;28;20457;-79
2021/03/02 09:16:32;;;;;;;17.23;8.23;;;7.80;99.90;;;;;;5016253;28;20462;-79
2021/03/02 09:19:05;;;;;;;19.10;9.43;;;8.10;99.90;;;;;;5016160;28;21007;-80
2021/03/02 09:21:32;;;;;;;19.93;9.63;;;8.50;99.90;;;;;;5016194;28;20493;-80
2021/03/02 09:23:59;;;;;;;20.37;11.33;;;8.80;98.90;;;;;;5014951;28;20564;-80
2021/03/02 09:26:28;;;;;;;20.17;9.10;;;9.10;93.60;;;;;;5016055;28;20514;-80
2021/03/02 09:28:56;;;;;;;26.80;10.67;;;9.40;71.80;;;;;;5016104;28;20526;-80
2021/03/02 09:31:23;;;;;;;19.37;10.33;;;9.60;61.80;;;;;;5015999;28;20944;-81
2021/03/02 09:33:50;;;;;;;28.23;10.97;;;9.70;48.00;;;;;;5016000;28;20820;-81
2021/03/02 09:36:21;;;;;;;18.70;9.37;;;10.00;54.60;;;;;;5015944;28;20596;-81
2021/03/02 09:38:47;;;;;;;19.60;9.10;;;10.40;49.10;;;;;;5014819;28;20477;-81
2021/03/02 09:41:31;;;;;;;21.83;10.50;;;10.60;40.70;;;;;;5015576;28;20540;-81
2021/03/02 09:44:14;;;;;;;22.57;11.10;;;10.90;38.30;;;;;;5015862;28;20449;-81
2021/03/02 09:46:40;;;;;;;18.80;9.80;;;11.30;27.90;;;;;;5015296;28;20889;-81
2021/03/02 09:49:07;;;;;;;19.57;9.60;;;11.40;27.70;;;;;;5015657;28;20496;-81
2021/03/02 09:51:34;;;;;;;21.10;9.70;;;11.50;22.30;;;;;;5015757;28;20558;-81
2021/03/02 09:54:12;;;;;;;21.80;9.83;;;11.80;23.10;;;;;;5014243;28;20840;-81
2021/03/02 09:56:40;;;;;;;22.70;9.57;;;11.90;17.90;;;;;;5015546;28;20461;-81
2021/03/02 09:59:07;;;;;;;22.73;10.67;;;12.00;19.60;;;;;;5015257;28;20477;-82
2021/03/02 10:01:34;;;;;;;22.83;10.57;;;12.40;17.60;;;;;;5015558;28;20466;-82
2021/03/02 10:04:07;;;;;;;23.90;11.23;;;12.80;15.20;;;;;;5015695;28;20544;-83
2021/03/02 10:06:34;;;;;;;22.50;10.60;;;12.70;13.50;;;;;;5015223;28;20460;-81
2021/03/02 10:09:00;;;;;;;23.03;11.27;;;13.00;13.30;;;;;;5014064;28;20479;-82
2021/03/02 10:11:30;;;;;;;24.73;11.83;;;13.20;11.40;;;;;;5015443;28;20489;-83
2021/03/02 10:14:02;;;;;;;23.07;11.20;;;13.40;11.00;;;;;;5015061;28;20453;-82
2021/03/02 10:16:30;;;;;;;20.93;10.67;;;13.70;12.20;;;;;;5015245;28;20882;-82
2021/03/02 10:18:59;;;;;;;25.43;11.53;;;13.90;10.10;;;;;;5015149;28;20859;-82
2021/03/02 10:22:17;;;;;;;;;;;;;;;;;;;;;
2021/03/02 10:28:43;;;;;;;28.50;12.40;;;14.10;5.70;;;;;;4805014;29;20866;-82
2021/03/02 10:31:26;;;;;;;24.10;10.83;;;14.30;5.20;;;;;;4843068;29;20553;-82
2021/03/02 10:34:34;;;;;;;;;;;;;;;;;;;;;
2021/03/02 10:37:31;;;;;;;22.60;10.27;;;14.90;3.20;;;;;;5009263;28;20454;-82
2021/03/02 10:40:24;;;;;;;;;;;;;;;;;;;;;
2021/03/02 10:43:41;;;;;;;;;;;;;;;;;;;;;
2021/03/02 10:49:06;;;;;;;24.37;10.47;;;15.40;1.00;;;;;;5012398;28;20456;-80
2021/03/02 10:51:33;;;;;;;26.90;12.43;;;15.80;1.00;;;;;;5014743;28;20467;-80
2021/03/02 10:54:00;;;;;;;26.70;11.97;;;16.00;1.00;;;;;;5013247;28;20532;-80
2021/03/02 10:56:27;;;;;;;25.30;11.30;;;15.70;1.00;;;;;;5013659;28;20546;-82
2021/03/02 10:58:53;;;;;;;23.07;11.50;;;15.60;1.00;;;;;;5014006;28;20488;-80
2021/03/02 11:01:21;;;;;;;28.90;11.00;;;15.90;1.00;;;;;;5014415;28;20497;-80
2021/03/02 11:03:48;;;;;;;28.30;12.80;;;16.30;1.00;;;;;;5014220;28;20506;-80
2021/03/02 11:06:19;;;;;;;26.20;11.40;;;16.50;1.00;;;;;;5014143;28;21033;-80
2021/03/02 11:08:48;;;;;;;28.43;10.93;;;16.60;1.00;;;;;;5013947;28;20475;-80
2021/03/02 11:11:14;;;;;;;26.70;10.97;;;16.70;1.00;;;;;;5013539;28;20958;-80
2021/03/02 11:13:42;;;;;;;24.87;12.23;;;16.50;1.00;;;;;;5014336;28;20464;-79
2021/03/02 11:16:10;;;;;;;26.40;12.40;;;16.80;1.00;;;;;;5013999;28;20626;-81
2021/03/02 11:18:46;;;;;;;26.43;11.70;;;17.10;1.00;;;;;;5013663;28;20483;-81
2021/03/02 11:21:15;;;;;;;31.00;13.00;;;17.40;1.00;;;;;;5013798;28;20465;-82
2021/03/02 11:23:53;;;;;;;25.83;12.00;;;17.40;1.00;;;;;;5013950;28;20507;-81
2021/03/02 11:26:19;;;;;;;23.90;11.17;;;17.80;1.00;;;;;;5013519;28;20540;-81
2021/03/02 11:28:46;;;;;;;25.80;10.80;;;17.60;1.00;;;;;;5013744;28;20460;-81
2021/03/02 11:31:14;;;;;;;33.00;13.13;;;17.50;1.00;;;;;;5013921;28;20541;-81
2021/03/02 11:33:43;;;;;;;30.17;12.70;;;17.40;1.00;;;;;;5013792;28;21002;-81
2021/03/02 11:36:12;;;;;;;27.80;12.10;;;17.60;1.00;;;;;;5013834;28;20451;-81
2021/03/02 11:38:39;;;;;;;29.20;11.90;;;17.40;1.00;;;;;;5013606;28;20482;-81
2021/03/02 11:41:12;;;;;;;27.63;12.40;;;17.30;1.00;;;;;;5012320;28;20542;-81
2021/03/02 11:43:43;;;;;;;30.27;13.00;;;17.50;1.00;;;;;;5013600;28;20458;-81
2021/03/02 11:46:21;;;;;;;;;;;;;;;;;;;;;
2021/03/02 11:48:47;;;;;;;27.47;11.93;;;17.60;1.00;;;;;;5002850;28;20499;-81
2021/03/02 11:51:18;;;;;;;29.60;12.67;;;18.20;1.00;;;;;;5013568;28;20550;-82
2021/03/02 11:53:51;;;;;;;27.10;12.00;;;18.50;1.00;;;;;;5013549;28;20532;-82
2021/03/02 11:56:24;;;;;;;28.07;12.00;;;18.50;1.00;;;;;;5013614;28;20872;-82
2021/03/02 11:59:19;;;;;;;28.50;12.80;;;18.60;1.00;;;;;;5013193;28;20480;-82
2021/03/02 12:01:48;;;;;;;30.17;12.70;;;18.40;1.00;;;;;;4978553;28;20447;-82
2021/03/02 12:04:15;;;;;;;28.00;12.20;;;19.00;1.00;;;;;;5013343;28;20816;-82
2021/03/02 12:07:21;;;;;;;35.03;14.43;;;18.60;1.00;;;;;;5013672;28;20456;-82
2021/03/02 12:09:58;;;;;;;33.57;12.30;;;18.50;1.00;;;;;;4932221;29;20487;-81
2021/03/02 12:12:27;;;;;;;33.00;13.93;;;18.40;1.00;;;;;;5013630;28;20499;-82
2021/03/02 12:15:19;;;;;;;29.90;14.33;;;18.80;1.00;;;;;;5013198;28;20463;-82
2021/03/02 12:17:49;;;;;;;29.30;13.00;;;18.90;1.00;;;;;;5009842;28;20872;-82
2021/03/02 12:20:43;;;;;;;29.53;13.73;;;19.70;1.00;;;;;;5012995;28;20489;-82
2021/03/02 12:23:11;;;;;;;34.50;14.77;;;19.80;1.00;;;;;;4975757;28;20539;-82
2021/03/02 12:25:37;;;;;;;34.57;13.57;;;19.90;1.00;;;;;;5011798;28;20539;-81
2021/03/02 12:28:06;;;;;;;31.30;13.90;;;20.60;1.00;;;;;;5013038;28;20528;-81
2021/03/02 12:30:35;;;;;;;34.80;15.00;;;20.40;1.00;;;;;;5012760;28;20949;-81
2021/03/02 12:33:03;;;;;;;30.27;13.20;;;20.60;1.00;;;;;;5010857;28;20492;-81
2021/03/02 12:35:52;;;;;;;34.87;13.70;;;20.60;1.00;;;;;;5010266;28;20453;-81
2021/03/02 12:39:00;;;;;;;31.90;13.70;;;20.70;1.00;;;;;;5011570;28;20852;-81
2021/03/02 12:41:48;;;;;;;30.17;14.33;;;20.60;1.00;;;;;;4954127;28;20998;-80
2021/03/02 12:44:34;;;;;;;31.53;14.03;;;21.00;1.00;;;;;;4984475;28;20445;-81
2021/03/02 12:47:02;;;;;;;33.93;14.60;;;20.60;1.00;;;;;;5011276;28;20460;-80
2021/03/02 12:49:28;;;;;;;36.73;14.70;;;21.20;1.00;;;;;;5011157;28;20457;-80
2021/03/02 12:51:58;;;;;;;34.50;14.30;;;20.70;1.00;;;;;;5013703;28;20922;-80
2021/03/02 12:54:28;;;;;;;31.23;14.00;;;21.00;1.00;;;;;;5011764;28;20485;-81
2021/03/02 12:56:54;;;;;;;30.63;12.43;;;21.40;1.00;;;;;;5011476;28;20543;-81